createdAt,value
2023-03-25T00:00:39.550Z,13.70
2023-03-25T00:06:57.238Z,10.02
2023-03-25T00:09:24.483Z,10.90
2023-03-25T00:11:51.724Z,12.55
2023-03-25T00:14:19.405Z,11.27
2023-03-25T00:16:48.621Z,10.68
2023-03-25T00:19:16.075Z,11.35
2023-03-25T00:21:46.163Z,15.90
2023-03-25T00:24:17.812Z,21.05
2023-03-25T00:26:49.016Z,14.38
2023-03-25T00:29:16.388Z,14.30
2023-03-25T00:31:43.823Z,12.70
2023-03-25T00:34:14.519Z,11.50
2023-03-25T00:36:43.812Z,10.40
2023-03-25T00:39:11.074Z,8.77
2023-03-25T00:41:42.186Z,9.75
2023-03-25T00:44:10.025Z,12.68
2023-03-25T00:46:37.246Z,12.43
2023-03-25T00:49:04.460Z,14.27
2023-03-25T00:51:33.808Z,10.65
2023-03-25T00:54:00.969Z,12.23
2023-03-25T00:56:28.286Z,11.95
2023-03-25T00:58:55.854Z,11.40
2023-03-25T01:01:27.069Z,11.45
2023-03-25T01:04:00.765Z,12.20
2023-03-25T01:06:35.244Z,14.68
2023-03-25T01:09:03.193Z,13.13
2023-03-25T01:11:31.120Z,11.52
2023-03-25T01:13:59.855Z,9.65
2023-03-25T01:16:27.371Z,7.90
2023-03-25T01:18:55.066Z,7.53
2023-03-25T01:21:22.287Z,6.93
2023-03-25T01:23:49.507Z,7.03
2023-03-25T01:26:16.713Z,6.60
2023-03-25T01:28:43.950Z,6.03
2023-03-25T01:31:11.985Z,4.97
2023-03-25T01:33:39.184Z,5.10
2023-03-25T01:36:09.521Z,5.20
2023-03-25T01:38:37.262Z,4.72
2023-03-25T01:41:04.560Z,4.28
2023-03-25T01:43:31.998Z,4.47
2023-03-25T01:45:59.288Z,5.05
2023-03-25T01:48:44.952Z,5.68
2023-03-25T01:51:19.294Z,9.68
2023-03-25T01:53:46.549Z,8.07
2023-03-25T01:56:14.771Z,7.22
2023-03-25T01:58:42.210Z,6.50
2023-03-25T02:01:13.619Z,7.30
2023-03-25T02:03:45.971Z,6.93
2023-03-25T02:06:15.996Z,11.95
2023-03-25T02:08:43.111Z,13.90
2023-03-25T02:11:11.347Z,9.43
2023-03-25T02:13:39.269Z,10.02
2023-03-25T02:16:26.384Z,9.75
2023-03-25T02:19:12.475Z,7.18
2023-03-25T02:21:50.207Z,6.97
2023-03-25T02:24:35.465Z,6.35
2023-03-25T02:27:27.084Z,6.43
2023-03-25T02:30:13.060Z,6.68
2023-03-25T02:32:45.890Z,6.65
2023-03-25T02:35:13.031Z,6.25
2023-03-25T02:37:49.194Z,3.95
2023-03-25T02:40:17.717Z,3.38
2023-03-25T02:42:49.730Z,3.15
2023-03-25T02:45:22.002Z,3.30
2023-03-25T02:47:50.254Z,3.97
2023-03-25T02:50:22.120Z,4.43
2023-03-25T02:52:50.550Z,3.78
2023-03-25T02:55:18.578Z,3.13
2023-03-25T02:57:46.627Z,3.33
2023-03-25T03:00:15.900Z,3.15
2023-03-25T03:02:50.683Z,3.65
2023-03-25T03:05:28.177Z,4.30
2023-03-25T03:08:14.827Z,4.00
2023-03-25T03:10:45.975Z,6.22
2023-03-25T03:13:13.109Z,7.30
2023-03-25T03:15:52.384Z,6.13
2023-03-25T03:18:38.491Z,7.20
2023-03-25T03:21:10.884Z,143.93
2023-03-25T03:23:56.936Z,43.67
2023-03-25T03:26:29.610Z,116.47
2023-03-25T03:29:09.148Z,69.75
2023-03-25T03:32:02.200Z,73.57
2023-03-25T03:34:28.595Z,45.35
2023-03-25T03:36:56.467Z,33.15
2023-03-25T03:39:31.506Z,8.77
2023-03-25T03:42:01.049Z,14.13
2023-03-25T03:44:30.702Z,10.98
2023-03-25T03:46:59.627Z,10.82
2023-03-25T03:49:33.784Z,9.05
2023-03-25T03:52:03.028Z,6.82
2023-03-25T03:54:38.658Z,8.05
2023-03-25T03:57:09.815Z,7.35
2023-03-25T03:59:47.537Z,5.80
2023-03-25T04:02:29.172Z,7.80
2023-03-25T04:05:00.581Z,6.72
2023-03-25T04:07:38.961Z,7.53
2023-03-25T04:10:14.765Z,7.70
2023-03-25T04:12:42.851Z,4.50
2023-03-25T04:15:10.301Z,5.63
2023-03-25T04:17:37.533Z,4.15
2023-03-25T04:20:09.016Z,4.25
2023-03-25T04:22:39.154Z,3.75
2023-03-25T04:25:06.981Z,3.85
2023-03-25T04:27:37.661Z,4.03
2023-03-25T04:30:06.188Z,3.67
2023-03-25T04:32:33.414Z,3.58
2023-03-25T04:35:00.561Z,3.70
2023-03-25T04:37:27.888Z,3.58
2023-03-25T04:39:56.170Z,4.05
2023-03-25T04:42:25.789Z,3.70
2023-03-25T04:44:53.359Z,5.50
2023-03-25T04:47:22.030Z,10.32
2023-03-25T04:49:49.192Z,10.80
2023-03-25T04:52:16.846Z,14.35
2023-03-25T04:54:44.869Z,6.88
2023-03-25T04:57:12.016Z,6.50
2023-03-25T04:59:39.205Z,5.97
2023-03-25T05:02:06.351Z,5.70
2023-03-25T05:04:33.811Z,5.78
2023-03-25T05:07:01.020Z,5.55
2023-03-25T05:09:29.588Z,5.10
2023-03-25T05:11:56.775Z,6.00
2023-03-25T05:14:23.956Z,4.95
2023-03-25T05:16:51.935Z,5.03
2023-03-25T05:19:19.204Z,4.40
2023-03-25T05:21:46.493Z,4.88
2023-03-25T05:24:13.748Z,5.40
2023-03-25T05:26:41.432Z,6.55
2023-03-25T05:29:10.436Z,5.60
2023-03-25T05:31:37.664Z,5.95
2023-03-25T05:34:06.801Z,6.78
2023-03-25T05:36:34.037Z,6.88
2023-03-25T05:39:01.272Z,7.30
2023-03-25T05:41:39.104Z,7.20
2023-03-25T05:44:06.982Z,9.45
2023-03-25T05:46:34.424Z,9.10
2023-03-25T05:49:01.938Z,9.35
2023-03-25T05:51:29.561Z,10.98
2023-03-25T05:53:56.860Z,9.20
2023-03-25T05:56:24.365Z,8.13
2023-03-25T05:58:52.067Z,6.72
2023-03-25T06:01:31.775Z,6.00
2023-03-25T06:04:01.796Z,7.50
2023-03-25T06:06:29.386Z,9.18
2023-03-25T06:08:56.556Z,9.15
2023-03-25T06:11:23.724Z,7.80
2023-03-25T06:13:50.922Z,9.07
2023-03-25T06:16:18.809Z,9.30
2023-03-25T06:18:50.551Z,9.48
2023-03-25T06:21:20.912Z,9.63
2023-03-25T06:23:49.392Z,8.18
2023-03-25T06:26:17.120Z,8.55
2023-03-25T06:28:44.419Z,9.00
2023-03-25T06:31:18.868Z,9.27
2023-03-25T06:33:46.177Z,9.13
2023-03-25T06:36:13.737Z,10.00
2023-03-25T06:38:40.976Z,12.02
2023-03-25T06:41:08.233Z,16.25
2023-03-25T06:43:35.520Z,18.38
2023-03-25T06:46:02.741Z,19.10
2023-03-25T06:48:29.967Z,20.00
2023-03-25T06:50:57.227Z,41.17
2023-03-25T06:53:24.490Z,31.50
2023-03-25T06:55:51.900Z,38.40
2023-03-25T06:58:19.464Z,26.40
2023-03-25T07:00:46.946Z,18.60
2023-03-25T07:03:14.190Z,17.77
2023-03-25T07:05:42.863Z,18.35
2023-03-25T07:08:10.262Z,16.00
2023-03-25T07:10:37.404Z,17.23
2023-03-25T07:13:04.570Z,12.93
2023-03-25T07:15:31.765Z,9.63
2023-03-25T07:17:58.987Z,9.90
2023-03-25T07:20:26.139Z,8.80
2023-03-25T07:22:55.254Z,6.90
2023-03-25T07:25:22.676Z,6.30
2023-03-25T07:27:49.840Z,5.85
2023-03-25T07:30:17.147Z,5.70
2023-03-25T07:32:45.452Z,5.47
2023-03-25T07:35:12.631Z,7.80
2023-03-25T07:37:39.825Z,25.35
2023-03-25T07:40:07.372Z,4.22
2023-03-25T07:42:34.486Z,4.28
2023-03-25T07:45:01.641Z,3.72
2023-03-25T07:47:28.825Z,3.75
2023-03-25T07:49:56.005Z,4.47
2023-03-25T07:52:23.153Z,3.50
2023-03-25T07:54:50.313Z,19.83
2023-03-25T07:57:17.485Z,3.15
2023-03-25T07:59:44.701Z,7.68
2023-03-25T08:02:14.775Z,26.42
2023-03-25T08:04:41.979Z,4.32
2023-03-25T08:07:09.334Z,2.83
2023-03-25T08:09:36.481Z,2.47
2023-03-25T08:12:03.600Z,2.90
2023-03-25T08:14:30.763Z,2.70
2023-03-25T08:16:57.990Z,2.20
2023-03-25T08:19:25.623Z,2.35
2023-03-25T08:21:52.837Z,2.67
2023-03-25T08:24:20.012Z,4.28
2023-03-25T08:26:48.090Z,2.30
2023-03-25T08:29:17.448Z,2.65
2023-03-25T08:31:46.950Z,2.72
2023-03-25T08:34:14.689Z,1.90
2023-03-25T08:36:41.874Z,2.20
2023-03-25T08:39:11.836Z,1.80
2023-03-25T08:41:39.733Z,1.60
2023-03-25T08:44:07.531Z,2.00
2023-03-25T08:46:34.687Z,1.70
2023-03-25T08:49:01.858Z,2.17
2023-03-25T08:51:29.028Z,30.83
2023-03-25T08:53:56.900Z,1.90
2023-03-25T08:56:24.057Z,2.20
2023-03-25T08:58:51.586Z,2.00
2023-03-25T09:01:19.064Z,1.95
2023-03-25T09:03:46.835Z,2.15
2023-03-25T09:06:14.705Z,1.92
2023-03-25T09:08:42.162Z,2.10
2023-03-25T09:11:09.851Z,1.45
2023-03-25T09:13:37.146Z,1.70
2023-03-25T09:16:04.382Z,1.90
2023-03-25T09:18:32.186Z,1.60
2023-03-25T09:21:00.450Z,7.93
2023-03-25T09:23:27.908Z,3.13
2023-03-25T09:25:56.611Z,6.65
2023-03-25T09:28:24.159Z,3.65
2023-03-25T09:30:52.741Z,2.05
2023-03-25T09:33:20.277Z,2.58
2023-03-25T09:35:47.666Z,9.60
2023-03-25T09:38:15.212Z,2.13
2023-03-25T09:40:43.114Z,1.85
2023-03-25T09:43:13.190Z,2.13
2023-03-25T09:45:40.912Z,2.28
2023-03-25T09:48:14.171Z,2.42
2023-03-25T09:50:41.305Z,2.50
2023-03-25T09:53:13.284Z,1.83
2023-03-25T09:55:44.165Z,1.92
2023-03-25T09:58:14.399Z,1.77
2023-03-25T10:00:41.608Z,2.00
2023-03-25T10:03:12.535Z,2.10
2023-03-25T10:05:58.482Z,3.03
2023-03-25T10:08:28.945Z,3.42
2023-03-25T10:11:02.231Z,2.33
2023-03-25T10:13:38.836Z,1.83
2023-03-25T10:16:08.995Z,1.80
2023-03-25T10:18:39.282Z,1.83
2023-03-25T10:21:12.354Z,3.08
2023-03-25T10:23:43.290Z,2.08
2023-03-25T10:26:12.263Z,2.08
2023-03-25T10:28:43.512Z,2.50
2023-03-25T10:31:13.818Z,1.95
2023-03-25T10:33:41.939Z,2.20
2023-03-25T10:36:11.747Z,2.15
2023-03-25T10:38:39.280Z,2.70
2023-03-25T10:41:18.585Z,2.38
2023-03-25T10:43:45.921Z,2.90
2023-03-25T10:46:23.044Z,2.60
2023-03-25T10:48:50.256Z,1.70
2023-03-25T10:51:21.649Z,1.50
2023-03-25T10:53:53.281Z,1.70
2023-03-25T10:56:25.575Z,1.40
2023-03-25T10:58:53.808Z,2.72
2023-03-25T11:01:33.154Z,1.75
2023-03-25T11:04:00.528Z,1.70
2023-03-25T11:06:29.692Z,1.30
2023-03-25T11:09:09.127Z,1.58
2023-03-25T11:11:36.610Z,1.65
2023-03-25T11:14:03.862Z,1.60
2023-03-25T11:16:34.314Z,1.20
2023-03-25T11:19:01.970Z,1.35
2023-03-25T11:21:31.572Z,1.50
2023-03-25T11:23:59.022Z,1.40
2023-03-25T11:26:27.796Z,1.20
2023-03-25T11:28:56.073Z,1.58
2023-03-25T11:31:24.045Z,1.48
2023-03-25T11:34:07.540Z,1.83
2023-03-25T11:36:41.683Z,1.73
2023-03-25T11:39:29.670Z,1.17
2023-03-25T11:41:56.893Z,1.45
2023-03-25T11:44:24.617Z,1.38
2023-03-25T11:46:52.480Z,2.08
2023-03-25T11:49:21.602Z,1.50
2023-03-25T11:51:49.420Z,1.70
2023-03-25T11:54:17.162Z,2.42
2023-03-25T11:56:45.110Z,1.38
2023-03-25T11:59:28.484Z,2.30
2023-03-25T12:02:03.020Z,1.55
2023-03-25T12:04:30.201Z,2.17
2023-03-25T12:07:09.985Z,2.13
2023-03-25T12:09:37.256Z,1.73
2023-03-25T12:12:23.366Z,2.20
2023-03-25T12:15:02.758Z,1.65
2023-03-25T12:17:42.835Z,4.28
2023-03-25T12:20:16.096Z,1.70
2023-03-25T12:22:54.111Z,12.77
2023-03-25T12:25:27.673Z,1.05
2023-03-25T12:28:05.305Z,28.67
2023-03-25T12:30:32.425Z,4.15
2023-03-25T12:33:02.447Z,1.30
2023-03-25T12:35:31.894Z,1.27
2023-03-25T12:38:00.270Z,5.70
2023-03-25T12:40:27.907Z,1.20
2023-03-25T12:42:57.834Z,0.55
2023-03-25T12:45:26.926Z,0.60
2023-03-25T12:47:59.693Z,0.75
2023-03-25T12:50:35.612Z,0.90
2023-03-25T12:53:14.980Z,0.75
2023-03-25T12:55:42.375Z,1.80
2023-03-25T12:58:29.811Z,1.13
2023-03-25T13:00:56.984Z,1.20
2023-03-25T13:03:50.321Z,1.40
2023-03-25T13:06:35.357Z,1.30
2023-03-25T13:09:11.765Z,1.60
2023-03-25T13:11:38.888Z,1.27
2023-03-25T13:14:08.103Z,2.10
2023-03-25T13:16:35.371Z,2.90
2023-03-25T13:19:12.890Z,2.20
2023-03-25T13:21:41.384Z,1.85
2023-03-25T13:24:11.488Z,1.63
2023-03-25T13:26:38.676Z,4.55
2023-03-25T13:29:14.842Z,2.38
2023-03-25T13:31:42.640Z,3.65
2023-03-25T13:34:23.264Z,2.40
2023-03-25T13:37:03.294Z,1.05
2023-03-25T13:39:51.693Z,1.40
2023-03-25T13:42:20.364Z,1.83
2023-03-25T13:44:47.594Z,1.35
2023-03-25T13:47:18.078Z,2.40
2023-03-25T13:49:51.726Z,4.05
2023-03-25T13:52:18.927Z,3.03
2023-03-25T13:54:52.232Z,2.72
2023-03-25T13:57:37.698Z,2.20
2023-03-25T14:00:15.195Z,2.65
2023-03-25T14:02:51.709Z,2.95
2023-03-25T14:05:37.872Z,2.67
2023-03-25T14:08:23.703Z,2.50
2023-03-25T14:11:02.976Z,1.85
2023-03-25T14:13:40.256Z,3.17
2023-03-25T14:16:08.577Z,2.47
2023-03-25T14:18:42.788Z,2.28
2023-03-25T14:21:14.797Z,2.72
2023-03-25T14:23:44.137Z,3.72
2023-03-25T14:26:12.039Z,2.63
2023-03-25T14:28:43.774Z,2.35
2023-03-25T14:31:18.258Z,2.08
2023-03-25T14:34:03.857Z,3.00
2023-03-25T14:36:40.722Z,3.10
2023-03-25T14:39:26.403Z,2.30
2023-03-25T14:41:56.648Z,2.80
2023-03-25T14:44:28.786Z,2.20
2023-03-25T14:47:20.770Z,2.30
2023-03-25T14:49:54.570Z,2.10
2023-03-25T14:52:42.177Z,2.40
2023-03-25T14:55:18.767Z,10.63
2023-03-25T14:57:46.364Z,4.85
2023-03-25T15:00:21.558Z,4.60
2023-03-25T15:02:52.736Z,2.40
2023-03-25T15:05:29.654Z,1.83
2023-03-25T15:07:59.010Z,2.40
2023-03-25T15:10:36.689Z,2.08
2023-03-25T15:13:07.477Z,3.78
2023-03-25T15:15:47.278Z,7.60
2023-03-25T15:18:34.423Z,9.10
2023-03-25T15:21:11.348Z,6.95
2023-03-25T15:23:38.540Z,7.40
2023-03-25T15:26:06.254Z,6.28
2023-03-25T15:28:52.228Z,5.57
2023-03-25T15:31:20.254Z,7.35
2023-03-25T15:33:47.500Z,6.60
2023-03-25T15:36:33.159Z,5.25
2023-03-25T15:39:12.899Z,4.95
2023-03-25T15:41:55.355Z,12.85
2023-03-25T15:44:22.498Z,6.70
2023-03-25T15:47:04.952Z,71.78
2023-03-25T15:49:50.588Z,54.50
2023-03-25T15:52:29.993Z,30.42
2023-03-25T15:54:57.987Z,24.02
2023-03-25T15:57:33.043Z,27.02
2023-03-25T16:00:00.204Z,6.30
2023-03-25T16:02:59.889Z,4.65
2023-03-25T16:05:27.108Z,10.32
2023-03-25T16:07:54.358Z,2.67
2023-03-25T16:10:22.068Z,6.20
2023-03-25T16:12:49.944Z,6.00
2023-03-25T16:15:17.580Z,18.52
2023-03-25T16:17:45.625Z,35.75
2023-03-25T16:20:18.364Z,7.70
2023-03-25T16:22:47.743Z,8.27
2023-03-25T16:25:15.590Z,9.30
2023-03-25T16:27:44.661Z,10.40
2023-03-25T16:30:22.728Z,7.45
2023-03-25T16:32:50.185Z,11.63
2023-03-25T16:35:36.470Z,9.85
2023-03-25T16:38:03.791Z,9.23
2023-03-25T16:40:40.101Z,10.90
2023-03-25T16:43:07.705Z,12.15
2023-03-25T16:45:35.678Z,7.18
2023-03-25T16:48:03.912Z,8.00
2023-03-25T16:50:31.562Z,15.07
2023-03-25T16:53:02.909Z,10.95
2023-03-25T16:55:31.509Z,11.15
2023-03-25T16:58:00.802Z,20.50
2023-03-25T17:00:28.119Z,58.15
2023-03-25T17:02:57.046Z,33.47
2023-03-25T17:05:25.501Z,27.83
2023-03-25T17:08:01.954Z,14.05
2023-03-25T17:10:29.826Z,16.65
2023-03-25T17:12:57.895Z,15.40
2023-03-25T17:15:25.166Z,13.15
2023-03-25T17:17:53.781Z,17.27
2023-03-25T17:20:23.143Z,53.45
2023-03-25T17:23:00.597Z,30.77
2023-03-25T17:25:29.382Z,27.17
2023-03-25T17:27:57.149Z,14.57
2023-03-25T17:30:43.473Z,23.30
2023-03-25T17:33:40.293Z,19.92
2023-03-25T17:36:10.900Z,40.08
2023-03-25T17:38:45.178Z,40.17
2023-03-25T17:41:12.851Z,33.10
2023-03-25T17:43:43.643Z,37.22
2023-03-25T17:46:11.240Z,24.15
2023-03-25T17:48:38.427Z,20.30
2023-03-25T17:51:05.780Z,19.42
2023-03-25T17:53:33.448Z,18.20
2023-03-25T17:56:03.501Z,22.33
2023-03-25T17:58:30.688Z,23.42
2023-03-25T18:00:59.052Z,24.27
2023-03-25T18:03:28.087Z,25.95
2023-03-25T18:05:55.417Z,30.23
2023-03-25T18:08:23.005Z,31.55
2023-03-25T18:10:50.839Z,64.97
2023-03-25T18:13:18.267Z,49.40
2023-03-25T18:15:45.573Z,35.88
2023-03-25T18:18:16.649Z,32.40
2023-03-25T18:20:43.823Z,38.85
2023-03-25T18:23:10.955Z,41.78
2023-03-25T18:25:38.123Z,55.75
2023-03-25T18:28:05.331Z,49.05
2023-03-25T18:30:38.342Z,55.10
2023-03-25T18:33:05.500Z,58.00
2023-03-25T18:35:32.734Z,68.65
2023-03-25T18:37:59.928Z,67.78
2023-03-25T18:40:36.481Z,57.30
2023-03-25T18:43:04.448Z,54.72
2023-03-25T18:45:31.960Z,74.60
2023-03-25T18:47:59.301Z,84.15
2023-03-25T18:50:36.728Z,72.05
2023-03-25T18:53:04.078Z,61.75
2023-03-25T18:55:31.549Z,71.22
2023-03-25T18:57:59.033Z,96.22
2023-03-25T19:00:36.511Z,120.13
2023-03-25T19:03:04.374Z,38.30
2023-03-25T19:05:31.660Z,56.20
2023-03-25T19:07:58.848Z,75.30
2023-03-25T19:10:26.956Z,122.65
2023-03-25T19:12:54.321Z,100.82
2023-03-25T19:15:21.842Z,88.30
2023-03-25T19:17:49.133Z,77.97
2023-03-25T19:20:21.013Z,79.70
2023-03-25T19:22:48.328Z,74.05
2023-03-25T19:25:15.569Z,74.05
2023-03-25T19:27:42.885Z,80.03
2023-03-25T19:30:10.971Z,83.72
2023-03-25T19:32:38.253Z,75.57
2023-03-25T19:35:06.030Z,68.63
2023-03-25T19:37:35.416Z,67.55
2023-03-25T19:40:08.391Z,67.55
2023-03-25T19:42:39.120Z,76.07
2023-03-25T19:45:10.423Z,70.30
2023-03-25T19:47:42.097Z,68.80
2023-03-25T19:50:10.863Z,58.33
2023-03-25T19:52:38.375Z,46.42
2023-03-25T19:55:05.971Z,45.70
2023-03-25T19:57:33.916Z,18.92
2023-03-25T20:00:02.338Z,29.92
2023-03-25T20:02:33.471Z,22.23
2023-03-25T20:05:01.306Z,31.63
2023-03-25T20:07:28.423Z,38.13
2023-03-25T20:09:55.598Z,41.40
2023-03-25T20:12:22.765Z,46.67
2023-03-25T20:14:49.893Z,36.75
2023-03-25T20:17:17.114Z,36.00
2023-03-25T20:19:44.282Z,63.00
2023-03-25T20:22:24.286Z,51.17
2023-03-25T20:24:52.193Z,55.38
2023-03-25T20:27:19.475Z,54.92
2023-03-25T20:29:46.685Z,82.82
2023-03-25T20:32:13.847Z,81.00
2023-03-25T20:34:40.971Z,64.63
2023-03-25T20:37:09.486Z,54.42
2023-03-25T20:39:37.293Z,53.33
2023-03-25T20:42:04.740Z,44.10
2023-03-25T20:44:33.409Z,47.35
2023-03-25T20:47:01.203Z,23.05
2023-03-25T20:49:28.449Z,38.22
2023-03-25T20:51:57.204Z,20.97
2023-03-25T20:54:25.084Z,21.70
2023-03-25T20:56:52.235Z,18.87
2023-03-25T20:59:19.924Z,18.93
2023-03-25T21:01:51.937Z,37.73
2023-03-25T21:04:19.619Z,30.10
2023-03-25T21:06:46.835Z,26.00
2023-03-25T21:09:15.033Z,20.27
2023-03-25T21:11:42.209Z,19.90
2023-03-25T21:14:10.704Z,23.17
2023-03-25T21:16:37.983Z,33.10
2023-03-25T21:19:05.168Z,46.87
2023-03-25T21:21:32.399Z,29.65
2023-03-25T21:23:59.641Z,33.20
2023-03-25T21:26:26.799Z,17.40
2023-03-25T21:28:54.200Z,18.90
2023-03-25T21:31:22.205Z,6.80
2023-03-25T21:33:51.320Z,4.20
2023-03-25T21:36:19.545Z,4.97
2023-03-25T21:38:47.140Z,3.57
2023-03-25T21:41:14.314Z,2.87
2023-03-25T21:43:42.303Z,2.70
2023-03-25T21:46:10.330Z,3.88
2023-03-25T21:48:44.942Z,2.92
2023-03-25T21:51:14.657Z,2.95
2023-03-25T21:53:43.927Z,3.75
2023-03-25T21:56:11.907Z,2.45
2023-03-25T21:58:41.855Z,5.05
2023-03-25T22:01:13.113Z,4.53
2023-03-25T22:03:45.539Z,4.32
2023-03-25T22:06:16.829Z,2.78
2023-03-25T22:08:44.159Z,3.33
2023-03-25T22:11:12.350Z,2.38
2023-03-25T22:13:39.618Z,1.80
2023-03-25T22:16:07.016Z,1.80
2023-03-25T22:18:34.267Z,2.10
2023-03-25T22:21:14.377Z,2.53
2023-03-25T22:23:41.998Z,1.95
2023-03-25T22:26:09.578Z,1.70
2023-03-25T22:28:37.042Z,2.35
2023-03-25T22:31:17.607Z,1.75
2023-03-25T22:33:44.842Z,1.50
2023-03-25T22:36:13.254Z,1.55
2023-03-25T22:38:44.546Z,1.45
2023-03-25T22:41:12.256Z,1.90
2023-03-25T22:43:39.471Z,1.60
2023-03-25T22:46:06.791Z,1.77
2023-03-25T22:48:33.992Z,1.40
2023-03-25T22:51:01.308Z,1.50
2023-03-25T22:53:28.670Z,1.33
2023-03-25T22:55:56.513Z,1.40
2023-03-25T22:58:24.638Z,1.25
2023-03-25T23:00:51.831Z,1.42
2023-03-25T23:03:19.191Z,1.17
2023-03-25T23:05:57.317Z,3.58
2023-03-25T23:08:29.915Z,1.55
2023-03-25T23:10:58.024Z,1.85
2023-03-25T23:13:25.566Z,2.05
2023-03-25T23:15:59.542Z,1.10
2023-03-25T23:18:27.468Z,1.50
2023-03-25T23:20:54.971Z,1.00
2023-03-25T23:23:22.417Z,1.13
2023-03-25T23:26:00.201Z,3.42
2023-03-25T23:28:34.330Z,2.97
2023-03-25T23:31:03.186Z,1.10
2023-03-25T23:33:31.287Z,1.50
2023-03-25T23:36:05.567Z,1.42
2023-03-25T23:38:34.120Z,1.27
2023-03-25T23:41:02.108Z,2.00
2023-03-25T23:43:29.517Z,3.08
2023-03-25T23:45:56.793Z,4.07
2023-03-25T23:48:24.520Z,1.80
2023-03-25T23:50:52.033Z,1.33
2023-03-25T23:53:19.250Z,1.60
2023-03-25T23:55:49.960Z,1.73
2023-03-25T23:58:17.254Z,1.60
